createdAt,value
2024-01-12T00:02:21.390Z,-3.92
2024-01-12T00:04:49.112Z,-3.90
2024-01-12T00:07:16.836Z,-3.92
2024-01-12T00:09:45.868Z,-3.85
2024-01-12T00:12:13.448Z,-3.85
2024-01-12T00:14:41.155Z,-3.88
2024-01-12T00:17:08.818Z,-3.88
2024-01-12T00:19:36.421Z,-3.82
2024-01-12T00:22:04.163Z,-3.85
2024-01-12T00:24:31.767Z,-3.89
2024-01-12T00:27:00.793Z,-3.89
2024-01-12T00:29:28.494Z,-3.83
2024-01-12T00:31:57.664Z,-3.79
2024-01-12T00:34:25.411Z,-3.83
2024-01-12T00:36:54.875Z,-3.84
2024-01-12T00:39:22.601Z,-3.91
2024-01-12T00:41:51.955Z,-3.95
2024-01-12T00:44:22.822Z,-3.99
2024-01-12T00:46:51.977Z,-3.96
2024-01-12T00:49:19.998Z,-4.04
2024-01-12T00:51:48.190Z,-4.08
2024-01-12T00:54:16.002Z,-4.14
2024-01-12T00:56:43.754Z,-4.11
2024-01-12T00:59:12.059Z,-4.21
2024-01-12T01:01:41.061Z,-4.18
2024-01-12T01:04:08.868Z,-4.19
2024-01-12T01:06:36.529Z,-4.22
2024-01-12T01:09:04.261Z,-4.30
2024-01-12T01:11:31.903Z,-4.31
2024-01-12T01:13:59.550Z,-4.32
2024-01-12T01:16:27.202Z,-4.36
2024-01-12T01:18:56.238Z,-4.38
2024-01-12T01:21:24.004Z,-4.42
2024-01-12T01:23:51.661Z,-4.46
2024-01-12T01:26:19.300Z,-4.49
2024-01-12T01:28:46.905Z,-4.54
2024-01-12T01:31:14.493Z,-4.57
2024-01-12T01:33:42.150Z,-4.60
2024-01-12T01:36:11.101Z,-4.62
2024-01-12T01:38:39.027Z,-4.66
2024-01-12T01:41:06.724Z,-4.71
2024-01-12T01:43:35.594Z,-4.78
2024-01-12T01:46:03.184Z,-4.86
2024-01-12T01:48:30.857Z,-4.89
2024-01-12T01:50:58.555Z,-4.90
2024-01-12T01:53:27.648Z,-4.94
2024-01-12T01:55:55.295Z,-4.98
2024-01-12T01:58:22.898Z,-5.01
2024-01-12T02:00:52.260Z,-5.05
2024-01-12T02:03:20.067Z,-5.07
2024-01-12T02:05:48.853Z,-5.05
2024-01-12T02:08:16.692Z,-5.09
2024-01-12T02:10:46.456Z,-5.09
2024-01-12T02:13:14.100Z,-5.13
2024-01-12T02:15:41.746Z,-5.34
2024-01-12T02:18:09.420Z,-5.15
2024-01-12T02:20:37.137Z,-5.16
2024-01-12T02:23:06.220Z,-5.21
2024-01-12T02:25:33.856Z,-5.25
2024-01-12T02:28:01.590Z,-5.27
2024-01-12T02:30:29.271Z,-5.30
2024-01-12T02:32:56.096Z,-5.31
2024-01-12T02:35:23.842Z,-5.31
2024-01-12T02:37:51.413Z,-5.37
2024-01-12T02:40:20.415Z,-5.33
2024-01-12T02:42:48.955Z,-5.28
2024-01-12T02:45:16.713Z,-5.21
2024-01-12T02:47:44.446Z,-5.14
2024-01-12T02:50:12.714Z,-5.05
2024-01-12T02:52:40.445Z,-5.10
2024-01-12T02:55:08.501Z,-5.11
2024-01-12T02:57:37.627Z,-5.09
2024-01-12T03:00:08.134Z,-5.13
2024-01-12T03:02:36.276Z,-5.16
2024-01-12T03:05:04.060Z,-5.17
2024-01-12T03:07:31.708Z,-5.18
2024-01-12T03:10:00.009Z,-5.23
2024-01-12T03:12:27.647Z,-5.28
2024-01-12T03:14:57.305Z,-5.31
2024-01-12T03:17:25.021Z,-5.33
2024-01-12T03:19:53.095Z,-5.34
2024-01-12T03:22:20.768Z,-5.38
2024-01-12T03:24:48.354Z,-5.42
2024-01-12T03:27:16.330Z,-5.49
2024-01-12T03:29:43.988Z,-5.53
2024-01-12T03:32:12.977Z,-5.55
2024-01-12T03:34:41.133Z,-5.58
2024-01-12T03:37:08.828Z,-5.60
2024-01-12T03:39:36.451Z,-5.59
2024-01-12T03:42:04.134Z,-5.64
2024-01-12T03:44:31.796Z,-5.67
2024-01-12T03:46:59.556Z,-5.70
2024-01-12T03:49:28.528Z,-5.71
2024-01-12T03:51:56.614Z,-5.76
2024-01-12T03:54:24.517Z,-5.75
2024-01-12T03:56:52.177Z,-5.75
2024-01-12T03:59:20.146Z,-5.82
2024-01-12T04:01:48.306Z,-5.86
2024-01-12T04:04:16.205Z,-5.90
2024-01-12T04:06:45.462Z,-5.90
2024-01-12T04:09:13.566Z,-5.90
2024-01-12T04:11:41.933Z,-5.94
2024-01-12T04:14:09.536Z,-5.97
2024-01-12T04:16:37.162Z,-5.99
2024-01-12T04:19:04.858Z,-6.01
2024-01-12T04:21:31.840Z,-6.05
2024-01-12T04:24:01.448Z,-6.06
2024-01-12T04:26:29.280Z,-6.10
2024-01-12T04:28:56.947Z,-6.10
2024-01-12T04:31:24.513Z,-6.12
2024-01-12T04:33:52.296Z,-6.15
2024-01-12T04:36:22.765Z,-6.37
2024-01-12T04:38:50.529Z,-6.17
2024-01-12T04:41:19.578Z,-6.19
2024-01-12T04:43:47.168Z,-6.15
2024-01-12T04:46:14.780Z,-6.15
2024-01-12T04:48:42.501Z,-6.18
2024-01-12T04:51:10.191Z,-6.21
2024-01-12T04:53:38.440Z,-6.19
2024-01-12T04:56:06.773Z,-6.18
2024-01-12T04:58:35.757Z,-6.14
2024-01-12T05:01:03.467Z,-6.08
2024-01-12T05:03:31.130Z,-6.04
2024-01-12T05:05:58.102Z,-5.98
2024-01-12T05:08:25.857Z,-5.98
2024-01-12T05:10:55.685Z,-6.00
2024-01-12T05:13:23.326Z,-6.01
2024-01-12T05:15:52.349Z,-6.04
2024-01-12T05:18:20.064Z,-5.95
2024-01-12T05:20:47.855Z,-5.97
2024-01-12T05:23:15.628Z,-5.95
2024-01-12T05:25:43.388Z,-5.92
2024-01-12T05:28:10.966Z,-5.79
2024-01-12T05:30:38.616Z,-5.76
2024-01-12T05:33:07.798Z,-5.83
2024-01-12T05:35:35.656Z,-5.83
2024-01-12T05:38:03.910Z,-5.75
2024-01-12T05:40:31.564Z,-5.64
2024-01-12T05:42:59.159Z,-5.56
2024-01-12T05:45:26.763Z,-5.64
2024-01-12T05:47:54.469Z,-5.30
2024-01-12T05:50:23.448Z,-5.22
2024-01-12T05:52:51.232Z,-5.16
2024-01-12T05:55:18.875Z,-5.07
2024-01-12T05:57:46.501Z,-4.99
2024-01-12T06:00:15.112Z,-4.91
2024-01-12T06:02:42.870Z,-4.85
2024-01-12T06:05:10.601Z,-4.76
2024-01-12T06:07:39.594Z,-4.70
2024-01-12T06:10:08.918Z,-4.67
2024-01-12T06:12:36.689Z,-4.83
2024-01-12T06:15:04.792Z,-4.70
2024-01-12T06:17:33.011Z,-4.64
2024-01-12T06:20:00.776Z,-4.65
2024-01-12T06:22:28.471Z,-4.60
2024-01-12T06:24:57.437Z,-4.53
2024-01-12T06:27:25.015Z,-4.39
2024-01-12T06:29:52.657Z,-4.30
2024-01-12T06:32:20.318Z,-4.27
2024-01-12T06:34:48.426Z,-4.25
2024-01-12T06:37:16.009Z,-4.19
2024-01-12T06:39:44.070Z,-4.11
2024-01-12T06:42:13.123Z,-4.06
2024-01-12T06:44:41.872Z,-4.03
2024-01-12T06:47:09.780Z,-4.02
2024-01-12T06:49:37.410Z,-3.96
2024-01-12T06:52:05.680Z,-3.94
2024-01-12T06:54:33.506Z,-3.94
2024-01-12T06:57:01.128Z,-3.88
2024-01-12T06:59:30.209Z,-3.85
2024-01-12T07:01:57.851Z,-3.82
2024-01-12T07:04:25.475Z,-3.79
2024-01-12T07:06:53.984Z,-3.81
2024-01-12T07:09:21.654Z,-3.79
2024-01-12T07:11:50.082Z,-3.83
2024-01-12T07:14:18.492Z,-3.81
2024-01-12T07:16:47.597Z,-3.80
2024-01-12T07:19:15.505Z,-3.84
2024-01-12T07:21:43.378Z,-3.81
2024-01-12T07:24:11.090Z,-3.81
2024-01-12T07:26:38.803Z,-3.81
2024-01-12T07:29:06.643Z,-3.79
2024-01-12T07:31:36.566Z,-3.74
2024-01-12T07:34:06.425Z,-3.68
2024-01-12T07:36:34.168Z,-3.67
2024-01-12T07:39:01.829Z,-3.65
2024-01-12T07:41:29.491Z,-3.59
2024-01-12T07:43:57.110Z,-3.54
2024-01-12T07:46:24.727Z,-3.55
2024-01-12T07:48:53.448Z,-3.44
2024-01-12T07:51:22.528Z,-3.39
2024-01-12T07:53:50.349Z,-3.33
2024-01-12T07:56:17.979Z,-3.28
2024-01-12T07:58:46.438Z,-3.24
2024-01-12T08:01:14.931Z,-3.17
2024-01-12T08:03:42.787Z,-3.11
2024-01-12T08:06:10.424Z,-3.05
2024-01-12T08:08:39.438Z,-2.96
2024-01-12T08:11:15.709Z,-2.91
2024-01-12T08:13:51.258Z,-2.82
2024-01-12T08:16:19.209Z,-2.77
2024-01-12T08:18:46.810Z,-2.69
2024-01-12T08:21:14.417Z,-2.59
2024-01-12T08:23:44.097Z,-2.60
2024-01-12T08:26:11.649Z,-2.51
2024-01-12T08:28:39.348Z,-2.46
2024-01-12T08:31:07.039Z,-2.42
2024-01-12T08:33:34.793Z,-2.34
2024-01-12T08:36:02.514Z,-2.30
2024-01-12T08:38:30.379Z,-2.28
2024-01-12T08:40:59.658Z,-2.28
2024-01-12T08:43:28.536Z,-2.26
2024-01-12T08:45:56.918Z,-2.26
2024-01-12T08:48:24.700Z,-2.31
2024-01-12T08:50:52.628Z,-2.30
2024-01-12T08:53:20.365Z,-2.28
2024-01-12T08:55:47.930Z,-2.20
2024-01-12T08:58:16.884Z,-2.20
2024-01-12T09:00:44.488Z,-2.19
2024-01-12T09:03:12.262Z,-2.12
2024-01-12T09:05:40.202Z,-2.15
2024-01-12T09:08:08.025Z,-2.13
2024-01-12T09:10:35.721Z,-2.18
2024-01-12T09:13:03.618Z,-2.13
2024-01-12T09:15:32.548Z,-2.03
2024-01-12T09:18:00.395Z,-1.99
2024-01-12T09:20:28.129Z,-1.88
2024-01-12T09:22:55.780Z,-1.81
2024-01-12T09:25:23.580Z,-1.80
2024-01-12T09:27:51.748Z,-1.60
2024-01-12T09:30:19.868Z,-1.45
2024-01-12T09:32:49.041Z,-1.32
2024-01-12T09:35:16.886Z,-1.16
2024-01-12T09:37:44.630Z,-1.21
2024-01-12T09:40:13.599Z,-1.06
2024-01-12T09:42:44.651Z,-0.94
2024-01-12T09:45:20.988Z,-0.82
2024-01-12T09:47:53.070Z,-0.74
2024-01-12T09:50:23.121Z,-0.73
2024-01-12T09:52:51.137Z,-0.68
2024-01-12T09:55:18.830Z,-0.71
2024-01-12T09:57:46.514Z,-0.73
2024-01-12T10:00:16.041Z,-0.74
2024-01-12T10:02:44.379Z,-0.75
2024-01-12T10:05:13.326Z,-0.70
2024-01-12T10:07:40.965Z,-0.72
2024-01-12T10:10:09.460Z,-0.65
2024-01-12T10:12:37.182Z,-0.80
2024-01-12T10:15:06.042Z,-0.80
2024-01-12T10:17:35.013Z,-0.79
2024-01-12T10:20:02.690Z,-0.76
2024-01-12T10:22:32.413Z,-0.69
2024-01-12T10:25:00.494Z,-0.68
2024-01-12T10:27:28.332Z,-0.63
2024-01-12T10:29:56.650Z,-0.69
2024-01-12T10:32:24.660Z,-0.68
2024-01-12T10:34:54.342Z,-0.78
2024-01-12T10:37:23.287Z,-0.83
2024-01-12T10:39:52.610Z,-0.72
2024-01-12T10:42:22.090Z,-0.73
2024-01-12T10:44:53.369Z,-0.75
2024-01-12T10:47:23.485Z,-0.81
2024-01-12T10:49:52.688Z,-0.78
2024-01-12T10:52:27.720Z,-0.79
2024-01-12T10:55:07.242Z,-0.76
2024-01-12T10:57:35.076Z,-0.66
2024-01-12T11:00:03.237Z,-0.64
2024-01-12T11:02:31.447Z,-0.59
2024-01-12T11:04:59.613Z,-0.82
2024-01-12T11:07:27.418Z,-0.84
2024-01-12T11:09:57.512Z,-0.87
2024-01-12T11:12:31.269Z,-0.72
2024-01-12T11:14:59.101Z,-0.58
2024-01-12T11:17:29.945Z,-0.51
2024-01-12T11:20:11.326Z,-0.48
2024-01-12T11:22:39.710Z,-0.63
2024-01-12T11:25:10.858Z,-0.44
2024-01-12T11:27:40.783Z,-0.36
2024-01-12T11:30:15.186Z,-0.34
2024-01-12T11:32:44.806Z,-0.28
2024-01-12T11:35:14.824Z,-0.24
2024-01-12T11:37:44.532Z,-0.17
2024-01-12T11:40:15.441Z,-0.26
2024-01-12T11:42:43.959Z,-0.22
2024-01-12T11:45:12.668Z,-0.28
2024-01-12T11:47:41.028Z,-0.27
2024-01-12T11:50:10.465Z,-0.28
2024-01-12T11:52:38.479Z,-0.22
2024-01-12T11:55:08.309Z,-0.24
2024-01-12T11:57:37.620Z,-0.25
2024-01-12T12:00:06.663Z,-0.28
2024-01-12T12:02:36.291Z,-0.36
2024-01-12T12:05:06.405Z,-0.24
2024-01-12T12:07:37.084Z,-0.29
2024-01-12T12:10:05.247Z,-0.22
2024-01-12T12:12:33.677Z,-0.17
2024-01-12T12:15:06.628Z,-0.20
2024-01-12T12:17:37.041Z,-0.22
2024-01-12T12:20:05.740Z,-0.36
2024-01-12T12:22:33.636Z,-0.26
2024-01-12T12:25:01.228Z,-0.40
2024-01-12T12:27:28.951Z,-0.31
2024-01-12T12:29:56.671Z,-0.23
2024-01-12T12:32:25.740Z,-0.20
2024-01-12T12:34:53.447Z,-0.21
2024-01-12T12:37:23.730Z,-0.17
2024-01-12T12:39:51.227Z,-0.18
2024-01-12T12:42:20.399Z,-0.17
2024-01-12T12:44:48.046Z,-0.12
2024-01-12T12:47:16.956Z,0.00
2024-01-12T12:49:46.003Z,-0.03
2024-01-12T12:52:13.665Z,-0.02
2024-01-12T12:54:41.251Z,0.05
2024-01-12T12:57:09.176Z,0.04
2024-01-12T12:59:38.424Z,-0.02
2024-01-12T13:02:06.297Z,-0.12
2024-01-12T13:04:33.976Z,-0.19
2024-01-12T13:07:04.209Z,-0.24
2024-01-12T13:09:31.881Z,-0.21
2024-01-12T13:12:00.287Z,-0.17
2024-01-12T13:14:27.994Z,-0.17
2024-01-12T13:16:55.653Z,-0.13
2024-01-12T13:19:26.172Z,-0.12
2024-01-12T13:21:54.755Z,-0.07
2024-01-12T13:24:24.942Z,-0.07
2024-01-12T13:26:52.426Z,-0.08
2024-01-12T13:29:20.081Z,-0.10
2024-01-12T13:31:47.793Z,-0.19
2024-01-12T13:34:17.032Z,-0.16
2024-01-12T13:36:46.201Z,-0.18
2024-01-12T13:39:13.867Z,-0.26
2024-01-12T13:41:43.484Z,-0.34
2024-01-12T13:44:11.297Z,-0.34
2024-01-12T13:46:39.543Z,-0.39
2024-01-12T13:49:07.289Z,-0.29
2024-01-12T13:51:35.178Z,-0.24
2024-01-12T13:54:06.102Z,-0.35
2024-01-12T13:56:34.405Z,-0.28
2024-01-12T13:59:05.319Z,-0.31
2024-01-12T14:01:34.704Z,-0.32
2024-01-12T14:04:03.706Z,-0.28
2024-01-12T14:06:32.506Z,-0.22
2024-01-12T14:09:00.699Z,-0.22
2024-01-12T14:11:28.710Z,-0.44
2024-01-12T14:13:57.725Z,-0.35
2024-01-12T14:16:26.813Z,-0.33
2024-01-12T14:18:54.505Z,-0.37
2024-01-12T14:21:22.233Z,-0.35
2024-01-12T14:23:50.458Z,-0.36
2024-01-12T14:26:18.120Z,-0.50
2024-01-12T14:28:45.885Z,-0.40
2024-01-12T14:31:13.652Z,-0.40
2024-01-12T14:33:45.379Z,-0.48
2024-01-12T14:36:14.055Z,-0.52
2024-01-12T14:38:43.715Z,-0.54
2024-01-12T14:41:14.222Z,-0.57
2024-01-12T14:43:41.687Z,-0.61
2024-01-12T14:46:09.981Z,-0.59
2024-01-12T14:48:37.777Z,-0.59
2024-01-12T14:51:07.255Z,-0.55
2024-01-12T14:53:38.248Z,-0.56
2024-01-12T14:56:09.004Z,-0.59
2024-01-12T14:58:36.649Z,-0.64
2024-01-12T15:01:04.991Z,-0.71
2024-01-12T15:03:33.483Z,-0.69
2024-01-12T15:06:01.400Z,-0.72
2024-01-12T15:08:30.793Z,-0.75
2024-01-12T15:10:59.843Z,-0.73
2024-01-12T15:13:28.077Z,-0.82
2024-01-12T15:15:56.798Z,-0.84
2024-01-12T15:18:25.003Z,-0.89
2024-01-12T15:20:54.965Z,-0.85
2024-01-12T15:23:22.722Z,-0.86
2024-01-12T15:25:57.749Z,-0.84
2024-01-12T15:28:25.514Z,-0.84
2024-01-12T15:30:53.237Z,-0.85
2024-01-12T15:33:21.087Z,-0.87
2024-01-12T15:35:48.865Z,-0.92
2024-01-12T15:38:16.516Z,-0.95
2024-01-12T15:40:44.351Z,-0.95
2024-01-12T15:43:13.331Z,-0.95
2024-01-12T15:45:41.031Z,-0.97
2024-01-12T15:48:10.079Z,-0.96
2024-01-12T15:50:37.849Z,-1.00
2024-01-12T15:53:05.964Z,-1.02
2024-01-12T15:55:33.680Z,-1.00
2024-01-12T15:58:01.286Z,-0.97
2024-01-12T16:00:30.803Z,-0.96
2024-01-12T16:02:58.426Z,-0.96
2024-01-12T16:05:26.653Z,-0.95
2024-01-12T16:07:55.157Z,-0.99
2024-01-12T16:10:22.739Z,-1.10
2024-01-12T16:12:50.573Z,-1.16
2024-01-12T16:15:18.334Z,-1.25
2024-01-12T16:17:47.520Z,-1.25
2024-01-12T16:20:15.382Z,-1.21
2024-01-12T16:22:43.060Z,-1.24
2024-01-12T16:25:11.008Z,-1.19
2024-01-12T16:27:38.637Z,-1.15
2024-01-12T16:30:07.509Z,-1.14
2024-01-12T16:32:35.713Z,-1.13
2024-01-12T16:35:05.222Z,-1.10
2024-01-12T16:37:32.864Z,-1.06
2024-01-12T16:40:00.614Z,-1.05
2024-01-12T16:42:28.291Z,-1.06
2024-01-12T16:44:57.456Z,-1.08
2024-01-12T16:47:26.464Z,-1.11
2024-01-12T16:49:54.130Z,-1.14
2024-01-12T16:52:24.222Z,-1.15
2024-01-12T16:54:51.860Z,-1.18
2024-01-12T16:57:20.717Z,-1.21
2024-01-12T16:59:48.308Z,-1.19
2024-01-12T17:02:15.889Z,-1.18
2024-01-12T17:04:43.618Z,-1.17
2024-01-12T17:07:11.212Z,-1.16
2024-01-12T17:09:40.232Z,-1.12
2024-01-12T17:12:08.182Z,-1.09
2024-01-12T17:14:37.324Z,-1.09
2024-01-12T17:17:13.469Z,-1.11
2024-01-12T17:19:47.992Z,-1.09
2024-01-12T17:22:15.717Z,-1.11
2024-01-12T17:24:44.894Z,-1.11
2024-01-12T17:27:12.614Z,-1.08
2024-01-12T17:29:41.155Z,-1.11
2024-01-12T17:32:08.827Z,-1.08
2024-01-12T17:34:36.703Z,-1.12
2024-01-12T17:37:04.681Z,-1.03
2024-01-12T17:39:33.176Z,-1.07
2024-01-12T17:42:02.218Z,-1.07
2024-01-12T17:44:30.767Z,-1.09
2024-01-12T17:46:58.387Z,-1.11
2024-01-12T17:49:26.177Z,-1.12
2024-01-12T17:51:53.858Z,-1.12
2024-01-12T17:54:24.781Z,-1.12
2024-01-12T17:56:52.487Z,-1.10
2024-01-12T17:59:21.564Z,-1.08
2024-01-12T18:01:49.132Z,-1.08
2024-01-12T18:04:16.760Z,-1.06
2024-01-12T18:06:44.454Z,-1.06
2024-01-12T18:09:12.788Z,-1.07
2024-01-12T18:11:40.877Z,-1.09
2024-01-12T18:14:09.561Z,-1.14
2024-01-12T18:16:40.898Z,-1.05
2024-01-12T18:19:10.206Z,-1.06
2024-01-12T18:21:38.090Z,-1.07
2024-01-12T18:24:05.850Z,-1.09
2024-01-12T18:26:33.532Z,-1.19
2024-01-12T18:29:01.147Z,-1.14
2024-01-12T18:31:28.831Z,-1.13
2024-01-12T18:33:57.928Z,-1.09
2024-01-12T18:36:25.645Z,-1.20
2024-01-12T18:38:53.279Z,-1.13
2024-01-12T18:41:20.961Z,-1.22
2024-01-12T18:43:48.578Z,-1.23
2024-01-12T18:46:16.214Z,-1.26
2024-01-12T18:48:43.873Z,-1.29
2024-01-12T18:51:13.247Z,-1.34
2024-01-12T18:53:41.087Z,-1.36
2024-01-12T18:56:08.844Z,-1.33
2024-01-12T18:58:36.516Z,-1.28
2024-01-12T19:01:04.132Z,-1.30
2024-01-12T19:03:31.766Z,-1.28
2024-01-12T19:05:59.738Z,-1.23
2024-01-12T19:08:28.743Z,-1.21
2024-01-12T19:10:56.319Z,-1.21
2024-01-12T19:13:23.928Z,-1.22
2024-01-12T19:15:51.566Z,-1.19
2024-01-12T19:18:19.388Z,-1.14
2024-01-12T19:20:47.108Z,-1.17
2024-01-12T19:23:14.769Z,-1.14
2024-01-12T19:25:43.748Z,-1.12
2024-01-12T19:28:11.323Z,-1.11
2024-01-12T19:30:38.963Z,-1.16
2024-01-12T19:33:07.158Z,-1.12
2024-01-12T19:35:34.969Z,-1.13
2024-01-12T19:38:02.613Z,-1.16
2024-01-12T19:40:30.180Z,-1.29
2024-01-12T19:42:59.120Z,-1.35
2024-01-12T19:45:26.893Z,-1.42
2024-01-12T19:47:54.560Z,-1.37
2024-01-12T19:50:22.236Z,-1.42
2024-01-12T19:52:49.917Z,-1.51
2024-01-12T19:55:17.827Z,-1.47
2024-01-12T19:57:45.434Z,-1.52
2024-01-12T20:00:15.739Z,-1.49
2024-01-12T20:02:43.219Z,-1.47
2024-01-12T20:05:10.842Z,-1.56
2024-01-12T20:07:38.525Z,-1.60
2024-01-12T20:10:08.285Z,-1.58
2024-01-12T20:12:36.284Z,-1.47
2024-01-12T20:15:04.311Z,-1.40
2024-01-12T20:17:33.497Z,-1.43
2024-01-12T20:20:02.258Z,-1.47
2024-01-12T20:22:29.969Z,-1.59
2024-01-12T20:24:57.531Z,-1.50
2024-01-12T20:27:25.155Z,-1.48
2024-01-12T20:29:52.910Z,-1.51
2024-01-12T20:32:20.611Z,-1.48
2024-01-12T20:34:49.630Z,-1.46
2024-01-12T20:37:17.871Z,-1.41
2024-01-12T20:39:45.462Z,-1.41
2024-01-12T20:42:13.252Z,-1.40
2024-01-12T20:44:40.925Z,-1.44
2024-01-12T20:47:08.615Z,-1.39
2024-01-12T20:49:36.226Z,-1.43
2024-01-12T20:52:05.317Z,-1.43
2024-01-12T20:54:32.900Z,-1.35
2024-01-12T20:57:00.564Z,-1.36
2024-01-12T20:59:30.408Z,-1.44
2024-01-12T21:01:59.507Z,-1.45
2024-01-12T21:04:27.236Z,-1.40
2024-01-12T21:06:55.005Z,-1.49
2024-01-12T21:09:24.014Z,-1.40
2024-01-12T21:11:51.690Z,-1.51
2024-01-12T21:14:19.356Z,-1.50
2024-01-12T21:16:48.922Z,-1.49
2024-01-12T21:19:16.700Z,-1.49
2024-01-12T21:21:44.425Z,-1.51
2024-01-12T21:24:12.170Z,-1.52
2024-01-12T21:26:41.384Z,-1.51
2024-01-12T21:29:09.003Z,-1.53
2024-01-12T21:31:36.954Z,-1.65
2024-01-12T21:34:04.782Z,-1.55
2024-01-12T21:36:32.764Z,-1.54
2024-01-12T21:39:03.368Z,-1.59
2024-01-12T21:41:31.480Z,-1.59
2024-01-12T21:44:00.526Z,-1.59
2024-01-12T21:46:28.377Z,-1.66
2024-01-12T21:48:56.201Z,-1.62
2024-01-12T21:51:23.961Z,-1.52
2024-01-12T21:53:51.717Z,-1.57
2024-01-12T21:56:19.357Z,-1.59
2024-01-12T21:58:49.857Z,-1.62
2024-01-12T22:01:19.629Z,-1.60
2024-01-12T22:03:47.393Z,-1.60
2024-01-12T22:06:15.241Z,-1.57
2024-01-12T22:08:42.921Z,-1.54
2024-01-12T22:11:10.513Z,-1.68
2024-01-12T22:13:38.122Z,-1.70
2024-01-12T22:16:06.205Z,-1.63
2024-01-12T22:18:35.335Z,-1.75
2024-01-12T22:21:03.065Z,-1.69
2024-01-12T22:23:30.703Z,-1.69
2024-01-12T22:25:58.318Z,-1.80
2024-01-12T22:28:25.947Z,-1.78
2024-01-12T22:30:53.591Z,-1.75
2024-01-12T22:33:23.843Z,-1.71
2024-01-12T22:35:53.344Z,-1.71
2024-01-12T22:38:20.970Z,-1.66
2024-01-12T22:40:48.526Z,-1.64
2024-01-12T22:43:16.150Z,-1.71
2024-01-12T22:45:43.754Z,-1.59
2024-01-12T22:48:11.454Z,-1.56
2024-01-12T22:50:40.097Z,-1.67
2024-01-12T22:53:09.066Z,-1.65
2024-01-12T22:55:36.618Z,-1.61
2024-01-12T22:58:04.295Z,-1.56
2024-01-12T23:00:33.764Z,-1.59
2024-01-12T23:03:02.029Z,-1.60
2024-01-12T23:05:30.518Z,-1.53
2024-01-12T23:07:58.290Z,-1.64
2024-01-12T23:10:27.257Z,-1.67
2024-01-12T23:12:54.850Z,-1.64
2024-01-12T23:15:22.772Z,-1.67
2024-01-12T23:17:50.437Z,-1.69
2024-01-12T23:20:20.308Z,-1.69
2024-01-12T23:22:48.119Z,-1.71
2024-01-12T23:25:15.731Z,-1.70
2024-01-12T23:27:45.340Z,-1.69
2024-01-12T23:30:14.366Z,-1.67
2024-01-12T23:32:42.514Z,-1.60
2024-01-12T23:35:10.585Z,-1.64
2024-01-12T23:37:38.260Z,-1.54
2024-01-12T23:40:10.114Z,-1.56
2024-01-12T23:42:37.952Z,-1.71
2024-01-12T23:45:08.111Z,-1.63
2024-01-12T23:47:35.868Z,-1.62
2024-01-12T23:50:04.719Z,-1.68
2024-01-12T23:52:32.633Z,-1.64
2024-01-12T23:55:00.286Z,-1.64
2024-01-12T23:57:27.877Z,-1.55
2024-01-12T23:59:55.709Z,-1.50
